Time;durP1;ratioP1;P1;durP2;ratioP2;P2;SDS_P1;SDS_P2;PMS_P1;PMS_P2;Temp;Humidity;BMP_temperature;BMP_pressure;BME280_temperature;BME280_humidity;BME280_pressure;Samples;Min_cycle;Max_cycle;Signal;HPM_P1;HPM_P2
2022/10/17 00:01:12;;;;;;;5.63;3.10;;;13.20;99.90;;;;;;4950157;28;20022;-95
2022/10/17 00:03:39;;;;;;;6.32;3.13;;;13.20;99.90;;;;;;4947500;28;20030;-94
2022/10/17 00:06:11;;;;;;;9.00;3.33;;;13.30;99.90;;;;;;4945751;28;20126;-94
2022/10/17 00:08:37;;;;;;;7.97;3.35;;;13.30;99.90;;;;;;4946590;28;20512;-95
2022/10/17 00:11:06;;;;;;;6.57;3.38;;;13.30;99.90;;;;;;4950788;28;20107;-93
2022/10/17 00:13:33;;;;;;;9.35;2.78;;;13.30;99.90;;;;;;4948010;28;20030;-94
2022/10/17 00:15:59;;;;;;;5.18;2.72;;;13.30;99.90;;;;;;4949477;28;20030;-95
2022/10/17 00:18:25;;;;;;;4.72;2.22;;;13.40;99.90;;;;;;4948646;28;20019;-96
2022/10/17 00:20:51;;;;;;;5.85;2.75;;;13.50;99.90;;;;;;4947563;28;20062;-94
2022/10/17 00:23:17;;;;;;;5.80;2.80;;;13.50;99.90;;;;;;4947200;29;20031;-93
2022/10/17 00:25:43;;;;;;;5.75;2.30;;;13.50;99.90;;;;;;4947542;28;20117;-93
2022/10/17 00:28:12;;;;;;;6.40;2.85;;;13.60;99.90;;;;;;4949714;28;20066;-94
2022/10/17 00:30:38;;;;;;;4.20;2.80;;;13.60;99.90;;;;;;4944861;29;20050;-95
2022/10/17 00:33:04;;;;;;;6.10;2.20;;;13.60;99.90;;;;;;4952656;28;20047;-92
2022/10/17 00:35:30;;;;;;;3.53;2.13;;;13.70;99.90;;;;;;4962733;28;20054;-93
2022/10/17 00:37:55;;;;;;;6.22;2.35;;;13.70;99.90;;;;;;4965021;28;20034;-93
2022/10/17 00:40:21;;;;;;;5.28;2.28;;;13.80;99.90;;;;;;4962424;28;20030;-93
2022/10/17 00:42:47;;;;;;;3.40;1.48;;;13.80;99.90;;;;;;4949710;28;20029;-94
2022/10/17 00:45:27;;;;;;;3.35;1.90;;;13.80;99.90;;;;;;4952359;28;20030;-94
2022/10/17 00:48:08;;;;;;;5.20;2.40;;;13.80;99.90;;;;;;4949713;28;20066;-95
2022/10/17 00:50:37;;;;;;;8.40;2.60;;;13.80;99.90;;;;;;4944832;29;20055;-94
2022/10/17 00:53:05;;;;;;;5.63;2.50;;;13.80;99.90;;;;;;4948443;28;20548;-95
2022/10/17 00:55:34;;;;;;;6.18;2.30;;;13.90;99.90;;;;;;4947204;28;20031;-94
2022/10/17 00:58:02;;;;;;;6.60;2.00;;;13.90;99.90;;;;;;4948271;29;20118;-94
2022/10/17 01:00:28;;;;;;;4.10;1.80;;;13.90;99.90;;;;;;4949364;28;20584;-94
2022/10/17 01:02:54;;;;;;;5.05;2.08;;;13.90;99.90;;;;;;4960640;28;20026;-93
2022/10/17 01:05:20;;;;;;;5.32;2.20;;;13.90;99.90;;;;;;4948700;28;20030;-94
2022/10/17 01:07:49;;;;;;;4.57;1.80;;;13.90;99.90;;;;;;4948856;28;20023;-94
2022/10/17 01:10:16;;;;;;;7.78;2.40;;;14.00;99.90;;;;;;4944306;28;20069;-95
2022/10/17 01:12:58;;;;;;;3.25;1.80;;;14.00;99.90;;;;;;4947933;28;20101;-95
2022/10/17 01:15:36;;;;;;;3.83;1.67;;;13.90;99.90;;;;;;4947167;28;20023;-94
2022/10/17 01:18:19;;;;;;;5.90;2.00;;;14.00;99.90;;;;;;4947988;28;20034;-95
2022/10/17 01:20:54;;;;;;;4.85;1.92;;;14.00;99.90;;;;;;4945484;28;20491;-94
2022/10/17 01:23:57;;;;;;;3.20;1.50;;;14.00;99.90;;;;;;4963181;28;20031;-94
2022/10/17 01:26:25;;;;;;;4.90;1.83;;;14.00;99.90;;;;;;4963090;28;20023;-95
2022/10/17 01:28:56;;;;;;;5.70;1.73;;;14.00;99.90;;;;;;4948329;28;20026;-95
2022/10/17 01:31:27;;;;;;;5.22;1.80;;;14.00;99.90;;;;;;4947076;28;20058;-94
2022/10/17 01:33:56;;;;;;;;;;;14.00;99.90;;;;;;4957420;28;20099;-95
2022/10/17 01:37:03;;;;;;;7.13;1.52;;;14.00;99.90;;;;;;4957348;28;19906;-94
2022/10/17 01:39:40;;;;;;;6.30;1.50;;;14.00;99.90;;;;;;4935410;28;20038;-94
2022/10/17 01:42:17;;;;;;;4.63;1.25;;;14.00;99.90;;;;;;4957583;28;20035;-94
2022/10/17 01:44:56;;;;;;;4.60;1.45;;;14.00;99.90;;;;;;4967549;28;20027;-94
2022/10/17 01:47:29;;;;;;;5.60;1.63;;;14.00;99.90;;;;;;4953517;28;20081;-94
2022/10/17 01:50:00;;;;;;;5.57;1.30;;;14.00;99.90;;;;;;4963782;28;20039;-94
2022/10/17 01:52:40;;;;;;;5.43;1.52;;;14.00;99.90;;;;;;4948706;29;20031;-95
2022/10/17 01:55:14;;;;;;;6.75;1.63;;;14.10;99.90;;;;;;4951486;28;20503;-95
2022/10/17 01:57:48;;;;;;;5.20;1.50;;;14.00;99.90;;;;;;4956294;28;20078;-94
2022/10/17 02:00:18;;;;;;;3.15;1.50;;;14.00;99.90;;;;;;4962898;28;20023;-95
2022/10/17 02:02:47;;;;;;;8.45;1.77;;;14.00;99.90;;;;;;4965509;28;20023;-94
2022/10/17 02:05:13;;;;;;;4.55;1.50;;;14.00;99.90;;;;;;4965446;28;20034;-94
2022/10/17 02:07:41;;;;;;;5.05;1.42;;;14.00;99.90;;;;;;4953313;28;20042;-94
2022/10/17 02:10:25;;;;;;;5.22;1.42;;;14.00;99.90;;;;;;4966182;28;20046;-93
2022/10/17 02:13:19;;;;;;;4.82;1.50;;;14.00;99.90;;;;;;4967633;28;20014;-94
2022/10/17 02:16:03;;;;;;;5.28;1.20;;;14.00;99.90;;;;;;4941943;28;20038;-93
2022/10/17 02:18:56;;;;;;;5.90;1.48;;;14.00;99.90;;;;;;4960455;28;20027;-93
2022/10/17 02:21:36;;;;;;;2.75;0.90;;;13.90;99.90;;;;;;4946998;29;20481;-93
2022/10/17 02:24:29;;;;;;;2.67;1.02;;;13.90;99.90;;;;;;4965872;28;20057;-94
2022/10/17 02:27:10;;;;;;;6.25;1.10;;;13.90;99.90;;;;;;4960651;28;20034;-94
2022/10/17 02:29:47;;;;;;;2.50;0.93;;;13.80;99.90;;;;;;4963162;28;20038;-92
2022/10/17 02:32:33;;;;;;;3.92;0.80;;;13.80;99.90;;;;;;4948300;28;20043;-94
2022/10/17 02:35:01;;;;;;;4.07;0.80;;;13.70;99.90;;;;;;4964961;28;20027;-93
2022/10/17 02:37:29;;;;;;;2.42;0.60;;;13.70;99.90;;;;;;4947930;29;20556;-93
2022/10/17 02:39:58;;;;;;;2.70;0.50;;;13.60;99.90;;;;;;4953732;28;20034;-92
2022/10/17 02:42:25;;;;;;;2.97;0.77;;;13.60;99.90;;;;;;4955971;28;20019;-92
2022/10/17 02:44:54;;;;;;;2.95;0.70;;;13.60;99.90;;;;;;4955937;28;20098;-92
2022/10/17 02:47:35;;;;;;;4.80;1.02;;;13.60;99.90;;;;;;4956270;28;20476;-92
2022/10/17 02:50:01;;;;;;;5.28;0.88;;;13.60;99.90;;;;;;4954375;28;20423;-92
2022/10/17 02:52:36;;;;;;;6.07;0.63;;;13.60;99.90;;;;;;4960910;28;20138;-91
2022/10/17 02:55:13;;;;;;;3.42;0.82;;;13.60;99.90;;;;;;4974091;28;20031;-93
2022/10/17 02:57:43;;;;;;;1.83;0.57;;;13.60;99.90;;;;;;4962277;28;20031;-93
2022/10/17 03:00:13;;;;;;;6.05;0.95;;;13.60;99.90;;;;;;4944881;29;20032;-92
2022/10/17 03:02:40;;;;;;;4.45;0.85;;;13.60;99.90;;;;;;4951299;28;20639;-94
2022/10/17 03:05:07;;;;;;;5.75;1.17;;;13.60;99.90;;;;;;4956264;28;20041;-92
2022/10/17 03:07:32;;;;;;;4.95;1.00;;;13.50;99.90;;;;;;4956225;28;20018;-92
2022/10/17 03:09:58;;;;;;;5.35;1.23;;;13.60;99.90;;;;;;4956966;28;20045;-92
2022/10/17 03:12:24;;;;;;;3.50;0.90;;;13.50;99.90;;;;;;4960544;28;20065;-94
2022/10/17 03:14:49;;;;;;;7.63;0.75;;;13.50;99.90;;;;;;4960356;28;20037;-92
2022/10/17 03:17:15;;;;;;;7.65;1.15;;;13.50;99.90;;;;;;4958529;28;20065;-92
2022/10/17 03:19:41;;;;;;;3.83;1.00;;;13.50;99.90;;;;;;4960908;28;20054;-94
2022/10/17 03:22:06;;;;;;;4.68;1.25;;;13.60;99.90;;;;;;4962027;28;20127;-91
2022/10/17 03:24:32;;;;;;;7.93;1.05;;;13.50;99.90;;;;;;4960790;28;20030;-92
2022/10/17 03:26:58;;;;;;;9.77;1.30;;;13.50;99.90;;;;;;4961130;28;20416;-94
2022/10/17 03:29:23;;;;;;;5.55;1.15;;;13.50;99.90;;;;;;4962967;28;20274;-94
2022/10/17 03:31:49;;;;;;;4.68;1.20;;;13.50;99.90;;;;;;4965552;28;20165;-93
2022/10/17 03:34:17;;;;;;;7.25;1.48;;;13.50;99.90;;;;;;4967489;28;20086;-94
2022/10/17 03:36:43;;;;;;;3.42;0.80;;;13.50;99.90;;;;;;4968769;28;20038;-95
2022/10/17 03:39:09;;;;;;;3.22;0.90;;;13.50;99.90;;;;;;4968724;28;20074;-95
2022/10/17 03:41:35;;;;;;;4.45;1.10;;;13.50;99.90;;;;;;4964824;28;20408;-94
2022/10/17 03:44:00;;;;;;;7.85;1.70;;;13.50;99.90;;;;;;4965026;28;20058;-93
2022/10/17 03:46:26;;;;;;;5.65;1.75;;;13.50;99.90;;;;;;4966557;28;20046;-93
2022/10/17 03:48:52;;;;;;;4.07;1.08;;;13.50;99.90;;;;;;4963371;28;20026;-93
2022/10/17 03:51:18;;;;;;;9.02;1.85;;;13.50;99.90;;;;;;4970042;28;20567;-94
2022/10/17 03:53:44;;;;;;;4.97;1.30;;;13.50;99.90;;;;;;4963304;28;20511;-93
2022/10/17 03:56:10;;;;;;;3.25;1.15;;;13.50;99.90;;;;;;4960287;28;20031;-95
2022/10/17 03:58:36;;;;;;;7.13;1.40;;;13.50;99.90;;;;;;4961330;28;20031;-93
2022/10/17 04:01:07;;;;;;;11.23;1.52;;;13.50;99.90;;;;;;4960461;28;20031;-93
2022/10/17 04:03:32;;;;;;;6.00;1.25;;;13.50;99.90;;;;;;4963017;28;20019;-94
2022/10/17 04:06:00;;;;;;;6.65;1.25;;;13.40;99.90;;;;;;4964206;28;20041;-94
2022/10/17 04:08:26;;;;;;;10.35;1.85;;;13.40;99.90;;;;;;4971871;28;20031;-91
2022/10/17 04:10:52;;;;;;;9.80;1.38;;;13.40;99.90;;;;;;4972812;28;20062;-93
2022/10/17 04:13:17;;;;;;;9.05;1.95;;;13.40;99.90;;;;;;4957440;28;20034;-94
2022/10/17 04:15:53;;;;;;;11.20;1.63;;;13.40;99.90;;;;;;4959888;28;20027;-94
2022/10/17 04:18:19;;;;;;;9.85;1.75;;;13.50;99.90;;;;;;4958744;28;20046;-94
2022/10/17 04:20:45;;;;;;;10.43;1.88;;;13.40;99.90;;;;;;4959916;28;20019;-93
2022/10/17 04:23:10;;;;;;;7.43;1.23;;;13.40;99.90;;;;;;4959856;28;20137;-94
2022/10/17 04:25:36;;;;;;;13.25;1.48;;;13.40;99.90;;;;;;4962685;28;20038;-94
2022/10/17 04:28:02;;;;;;;14.10;2.30;;;13.30;99.90;;;;;;4960675;28;20038;-93
2022/10/17 04:30:27;;;;;;;8.07;1.60;;;13.30;99.90;;;;;;4960631;28;20034;-93
2022/10/17 04:32:53;;;;;;;11.07;1.55;;;13.20;99.90;;;;;;4946424;28;20047;-92
2022/10/17 04:35:19;;;;;;;8.50;1.38;;;13.20;99.90;;;;;;4940744;29;20027;-94
2022/10/17 04:37:45;;;;;;;8.35;1.10;;;13.20;99.90;;;;;;4924827;29;20552;-94
2022/10/17 04:40:11;;;;;;;13.20;2.42;;;13.10;99.90;;;;;;4940323;29;20031;-94
2022/10/17 04:42:37;;;;;;;10.68;1.15;;;13.10;99.90;;;;;;4942282;29;20051;-94
2022/10/17 04:45:05;;;;;;;11.90;1.40;;;13.10;99.90;;;;;;4941553;29;20423;-92
2022/10/17 04:47:31;;;;;;;6.68;1.15;;;13.10;99.90;;;;;;4941432;29;20492;-94
2022/10/17 04:49:57;;;;;;;10.30;1.63;;;13.00;99.90;;;;;;4940505;29;20074;-93
2022/10/17 04:52:23;;;;;;;12.07;1.77;;;13.00;99.90;;;;;;4939203;29;20024;-93
2022/10/17 04:54:49;;;;;;;11.73;1.35;;;12.90;99.90;;;;;;4940077;29;20034;-94
2022/10/17 04:57:15;;;;;;;12.95;1.92;;;12.90;99.90;;;;;;4955880;29;20023;-94
2022/10/17 04:59:41;;;;;;;7.95;1.25;;;12.90;99.90;;;;;;4944029;29;20382;-96
2022/10/17 05:02:07;;;;;;;7.40;1.55;;;12.80;99.90;;;;;;4944716;29;20055;-94
2022/10/17 05:04:32;;;;;;;9.73;1.45;;;12.80;99.90;;;;;;4945293;29;20114;-94
2022/10/17 05:06:58;;;;;;;12.20;1.50;;;12.80;99.90;;;;;;4940804;29;20485;-94
2022/10/17 05:09:27;;;;;;;15.00;1.70;;;12.70;99.90;;;;;;4939110;29;20059;-94
2022/10/17 05:11:53;;;;;;;7.80;1.35;;;12.70;99.90;;;;;;4942138;29;20035;-94
2022/10/17 05:14:19;;;;;;;14.40;2.72;;;12.70;99.90;;;;;;4942358;29;20492;-95
2022/10/17 05:16:44;;;;;;;10.00;1.52;;;12.70;99.90;;;;;;4942847;29;20035;-94
2022/10/17 05:19:10;;;;;;;13.25;1.75;;;12.70;99.90;;;;;;4940486;29;20024;-92
2022/10/17 05:21:36;;;;;;;11.60;1.83;;;12.60;99.90;;;;;;4939186;29;20393;-94
2022/10/17 05:24:07;;;;;;;17.05;1.63;;;12.60;99.90;;;;;;4942007;29;20030;-94
2022/10/17 05:26:33;;;;;;;14.80;1.77;;;12.60;99.90;;;;;;4944149;29;20508;-94
2022/10/17 05:29:01;;;;;;;15.07;2.08;;;12.60;99.90;;;;;;4942296;29;20031;-92
2022/10/17 05:31:28;;;;;;;11.35;1.77;;;12.60;99.90;;;;;;4943186;28;20135;-94
2022/10/17 05:33:54;;;;;;;17.20;1.88;;;12.60;99.90;;;;;;4960976;28;20067;-93
2022/10/17 05:36:19;;;;;;;9.57;1.50;;;12.50;99.90;;;;;;4962250;28;20339;-94
2022/10/17 05:38:50;;;;;;;13.25;1.80;;;12.50;99.90;;;;;;4964210;28;20473;-92
2022/10/17 05:41:16;;;;;;;13.10;2.42;;;12.50;99.90;;;;;;4961782;28;20078;-94
2022/10/17 05:43:41;;;;;;;10.77;2.25;;;12.50;99.90;;;;;;4966469;28;20143;-93
2022/10/17 05:46:08;;;;;;;17.20;2.00;;;12.50;99.90;;;;;;4971676;28;20022;-94
2022/10/17 05:48:34;;;;;;;10.88;1.30;;;12.50;99.90;;;;;;4971753;28;20035;-94
2022/10/17 05:51:04;;;;;;;13.93;3.78;;;12.50;99.90;;;;;;4977901;28;20046;-93
2022/10/17 05:53:33;;;;;;;15.37;2.00;;;12.50;99.90;;;;;;4980719;28;20039;-93
2022/10/17 05:56:04;;;;;;;10.35;1.48;;;12.50;99.90;;;;;;4964979;28;20035;-95
2022/10/17 05:58:31;;;;;;;12.23;1.60;;;12.40;99.90;;;;;;4969779;28;20046;-95
2022/10/17 06:00:58;;;;;;;9.70;1.80;;;12.40;99.90;;;;;;4964356;28;20054;-93
2022/10/17 06:03:24;;;;;;;14.57;2.17;;;12.40;99.90;;;;;;4957883;28;20049;-93
2022/10/17 06:05:50;;;;;;;12.40;1.55;;;12.40;99.90;;;;;;4959205;28;20385;-94
2022/10/17 06:08:16;;;;;;;11.68;2.20;;;12.40;99.90;;;;;;4958228;28;20027;-93
2022/10/17 06:10:42;;;;;;;14.32;1.52;;;12.30;99.90;;;;;;4958737;28;20043;-95
2022/10/17 06:13:07;;;;;;;13.70;1.48;;;12.30;99.90;;;;;;4963890;28;20669;-94
2022/10/17 06:15:33;;;;;;;19.48;2.78;;;12.30;99.90;;;;;;4966599;28;20085;-93
2022/10/17 06:17:59;;;;;;;13.98;1.98;;;12.30;99.90;;;;;;4965631;28;20038;-94
2022/10/17 06:20:28;;;;;;;17.05;1.92;;;12.20;99.90;;;;;;4964387;28;20086;-96
2022/10/17 06:22:53;;;;;;;15.18;1.98;;;12.20;99.90;;;;;;4965837;28;20023;-94
2022/10/17 06:25:22;;;;;;;12.32;2.20;;;12.20;99.90;;;;;;4962281;28;20058;-94
2022/10/17 06:27:48;;;;;;;10.05;2.40;;;12.20;99.90;;;;;;4960348;28;20023;-95
2022/10/17 06:30:14;;;;;;;10.70;1.77;;;12.20;99.90;;;;;;4966335;28;20065;-95
2022/10/17 06:32:39;;;;;;;14.32;1.90;;;12.10;99.90;;;;;;4962452;28;20127;-95
2022/10/17 06:35:05;;;;;;;14.23;2.85;;;12.20;99.90;;;;;;4960481;28;20027;-95
2022/10/17 06:37:32;;;;;;;18.30;2.13;;;12.10;99.90;;;;;;4963583;28;20030;-95
2022/10/17 06:39:58;;;;;;;17.92;2.45;;;12.10;99.90;;;;;;4954865;28;20030;-96
2022/10/17 06:42:24;;;;;;;12.27;2.10;;;12.10;99.90;;;;;;4961538;28;20113;-94
2022/10/17 06:44:49;;;;;;;16.23;2.20;;;12.20;99.90;;;;;;4965844;28;20031;-95
2022/10/17 06:47:15;;;;;;;19.05;2.33;;;12.20;99.90;;;;;;4964534;28;20031;-94
2022/10/17 06:49:43;;;;;;;14.45;1.67;;;12.20;99.90;;;;;;4967060;28;20074;-93
2022/10/17 06:52:09;;;;;;;15.77;2.00;;;12.20;99.90;;;;;;4965394;28;20046;-94
2022/10/17 06:54:35;;;;;;;20.30;2.58;;;12.20;99.90;;;;;;4971032;28;20046;-96
2022/10/17 06:57:01;;;;;;;8.98;1.70;;;12.10;99.90;;;;;;4964736;28;20027;-95
2022/10/17 06:59:26;;;;;;;17.52;2.30;;;12.10;99.90;;;;;;4963055;28;20342;-95
2022/10/17 07:01:52;;;;;;;22.85;2.33;;;12.10;99.90;;;;;;4960232;28;20035;-94
2022/10/17 07:04:17;;;;;;;17.05;2.17;;;12.10;99.90;;;;;;4964601;28;20061;-95
2022/10/17 07:06:43;;;;;;;12.38;2.22;;;12.10;99.90;;;;;;4960947;28;20050;-95
2022/10/17 07:09:09;;;;;;;22.02;2.60;;;12.10;99.90;;;;;;4961773;28;20053;-93
2022/10/17 07:11:35;;;;;;;18.33;2.20;;;12.10;99.90;;;;;;4959405;28;20077;-95
2022/10/17 07:14:01;;;;;;;10.02;1.90;;;12.10;99.90;;;;;;4964937;28;20035;-95
2022/10/17 07:16:29;;;;;;;13.40;1.98;;;12.10;99.90;;;;;;4963175;28;20023;-94
2022/10/17 07:18:55;;;;;;;19.17;1.73;;;12.10;99.90;;;;;;4959817;28;20023;-94
2022/10/17 07:21:21;;;;;;;27.02;3.45;;;12.10;99.90;;;;;;4961322;28;20035;-94
2022/10/17 07:23:46;;;;;;;16.55;2.08;;;12.10;99.90;;;;;;4958555;28;20030;-94
2022/10/17 07:26:18;;;;;;;17.08;2.22;;;12.20;99.90;;;;;;4959947;28;20110;-92
2022/10/17 07:28:45;;;;;;;15.05;1.90;;;12.20;99.90;;;;;;4956999;28;20047;-95
2022/10/17 07:31:15;;;;;;;16.30;2.40;;;12.20;99.90;;;;;;4961450;28;20122;-94
2022/10/17 07:33:41;;;;;;;15.95;2.25;;;12.20;99.90;;;;;;4958918;28;20055;-95
2022/10/17 07:36:07;;;;;;;13.88;2.15;;;12.20;99.90;;;;;;4978895;28;20035;-92
2022/10/17 07:38:35;;;;;;;14.02;2.88;;;12.20;99.90;;;;;;4979803;28;20086;-92
2022/10/17 07:41:03;;;;;;;15.40;2.20;;;12.20;99.90;;;;;;4978862;28;20034;-92
2022/10/17 07:43:30;;;;;;;17.42;2.22;;;12.20;99.90;;;;;;4995800;28;20011;-92
2022/10/17 07:45:56;;;;;;;19.67;1.90;;;12.20;99.90;;;;;;4979091;28;20026;-92
2022/10/17 07:48:24;;;;;;;14.65;1.90;;;12.20;99.90;;;;;;4972245;28;20069;-95
2022/10/17 07:50:49;;;;;;;18.20;2.20;;;12.10;99.90;;;;;;4965348;28;20043;-96
2022/10/17 07:53:16;;;;;;;14.20;1.90;;;12.10;99.90;;;;;;4963561;28;20031;-94
2022/10/17 07:55:42;;;;;;;17.15;1.90;;;12.10;99.90;;;;;;4963411;28;20034;-94
2022/10/17 07:58:17;;;;;;;19.25;2.50;;;12.10;99.90;;;;;;4975285;28;20560;-95
2022/10/17 08:00:47;;;;;;;18.45;2.03;;;12.00;99.90;;;;;;4970612;28;20057;-94
2022/10/17 08:03:12;;;;;;;11.68;1.95;;;12.00;99.90;;;;;;4973047;28;20037;-92
2022/10/17 08:05:38;;;;;;;12.25;1.77;;;12.00;99.90;;;;;;4978255;28;20035;-93
2022/10/17 08:08:04;;;;;;;14.45;1.77;;;12.00;99.90;;;;;;4970924;28;20023;-94
2022/10/17 08:10:29;;;;;;;11.63;1.77;;;12.00;99.90;;;;;;4966671;28;20053;-93
2022/10/17 08:12:56;;;;;;;14.35;1.88;;;12.00;99.90;;;;;;4965388;28;20058;-94
2022/10/17 08:15:24;;;;;;;15.23;2.75;;;12.00;99.90;;;;;;4963011;28;20465;-94
2022/10/17 08:17:49;;;;;;;16.42;2.03;;;11.90;99.90;;;;;;4964774;28;20022;-94
2022/10/17 08:20:16;;;;;;;17.45;2.00;;;11.90;99.90;;;;;;4964697;28;20069;-94
2022/10/17 08:22:41;;;;;;;18.75;2.53;;;11.90;99.90;;;;;;4963198;28;20034;-94
2022/10/17 08:25:07;;;;;;;14.32;2.78;;;11.90;99.90;;;;;;4963637;28;20114;-94
2022/10/17 08:27:33;;;;;;;11.30;1.88;;;12.00;99.90;;;;;;4964005;28;20041;-94
2022/10/17 08:30:00;;;;;;;14.02;2.33;;;12.10;99.90;;;;;;4979751;28;20142;-96
2022/10/17 08:32:27;;;;;;;20.65;2.45;;;12.10;99.90;;;;;;4964265;28;20051;-96
2022/10/17 08:34:54;;;;;;;22.58;2.88;;;12.20;99.90;;;;;;4963336;28;20027;-95
2022/10/17 08:37:20;;;;;;;16.27;2.20;;;12.20;99.90;;;;;;4964182;28;20054;-96
2022/10/17 08:39:46;;;;;;;18.38;2.30;;;12.30;99.90;;;;;;4966229;28;20050;-94
2022/10/17 08:42:33;;;;;;;16.40;2.40;;;12.40;99.90;;;;;;4967418;28;20031;-95
2022/10/17 08:45:26;;;;;;;11.18;2.33;;;12.50;99.90;;;;;;4968639;28;20011;-94
2022/10/17 08:48:19;;;;;;;18.42;2.00;;;12.50;99.90;;;;;;4975424;28;20046;-96
2022/10/17 08:51:10;;;;;;;15.40;2.10;;;12.60;99.90;;;;;;4966166;28;20083;-92
2022/10/17 08:54:13;;;;;;;11.43;1.50;;;12.60;99.90;;;;;;4973599;28;20023;-94
2022/10/17 08:56:45;;;;;;;14.40;2.08;;;12.70;99.90;;;;;;4973595;28;20026;-93
2022/10/17 08:59:22;;;;;;;18.10;2.08;;;12.80;99.90;;;;;;4976065;28;20042;-94
2022/10/17 09:02:10;;;;;;;14.18;1.65;;;12.90;99.90;;;;;;4976223;28;20115;-95
2022/10/17 09:04:57;;;;;;;16.85;2.15;;;13.00;99.90;;;;;;4939402;28;20042;-93
2022/10/17 09:08:00;;;;;;;14.50;1.80;;;13.00;99.90;;;;;;4969270;28;20106;-94
2022/10/17 09:10:51;;;;;;;17.55;1.73;;;13.20;99.90;;;;;;4953583;29;20027;-95
2022/10/17 09:13:45;;;;;;;19.67;2.22;;;13.30;99.90;;;;;;4957785;29;20043;-95
2022/10/17 09:16:17;;;;;;;12.18;2.08;;;13.40;99.90;;;;;;4969514;28;20443;-94
2022/10/17 09:18:55;;;;;;;22.27;2.22;;;13.50;99.90;;;;;;4971713;28;20133;-94
2022/10/17 09:21:30;;;;;;;16.48;1.80;;;13.50;99.90;;;;;;4969189;28;20038;-93
2022/10/17 09:24:01;;;;;;;16.23;1.92;;;13.60;99.90;;;;;;4972672;28;20059;-95
2022/10/17 09:26:28;;;;;;;11.85;1.83;;;13.60;99.90;;;;;;4972878;28;20026;-93
2022/10/17 09:28:58;;;;;;;17.98;3.25;;;13.50;99.90;;;;;;4978597;28;20043;-93
2022/10/17 09:31:34;;;;;;;17.77;2.15;;;13.50;99.90;;;;;;4968689;28;20106;-96
2022/10/17 09:34:01;;;;;;;14.30;2.25;;;13.60;99.90;;;;;;4974274;28;20042;-95
2022/10/17 09:36:36;;;;;;;18.00;2.13;;;13.70;99.90;;;;;;4974266;28;20118;-96
2022/10/17 09:39:15;;;;;;;15.88;2.05;;;13.90;99.90;;;;;;4966604;28;20038;-95
2022/10/17 09:41:55;;;;;;;15.60;2.38;;;14.10;99.90;;;;;;4967953;28;20034;-96
2022/10/17 09:44:39;;;;;;;12.25;1.58;;;14.30;99.90;;;;;;4972470;28;20043;-94
2022/10/17 09:47:14;;;;;;;11.38;1.90;;;14.50;99.90;;;;;;4969819;28;20026;-93
2022/10/17 09:49:43;;;;;;;19.25;1.85;;;14.70;99.90;;;;;;4974040;28;20034;-94
2022/10/17 09:52:15;;;;;;;19.55;2.22;;;14.90;99.90;;;;;;4974774;28;20035;-95
2022/10/17 09:54:42;;;;;;;10.70;2.22;;;15.10;99.90;;;;;;4975205;28;20045;-94
2022/10/17 09:57:12;;;;;;;16.02;2.22;;;15.30;99.90;;;;;;4977086;28;20031;-94
2022/10/17 10:00:00;;;;;;;10.48;2.00;;;15.40;99.90;;;;;;4973684;28;20017;-95
2022/10/17 10:02:29;;;;;;;15.52;2.05;;;15.70;99.90;;;;;;4976275;28;20042;-95
2022/10/17 10:04:56;;;;;;;11.85;1.20;;;15.90;99.90;;;;;;4977388;28;20038;-95
2022/10/17 10:07:28;;;;;;;14.00;2.05;;;16.00;99.90;;;;;;4977651;28;20045;-94
2022/10/17 10:09:54;;;;;;;22.13;3.35;;;16.10;99.90;;;;;;4978086;28;20042;-95
2022/10/17 10:12:27;;;;;;;11.95;2.97;;;16.10;99.30;;;;;;4978990;28;20041;-94
2022/10/17 10:14:53;;;;;;;7.82;2.35;;;16.30;98.30;;;;;;4979036;28;20030;-95
2022/10/17 10:17:42;;;;;;;8.18;1.38;;;16.40;97.00;;;;;;4978321;28;20035;-95
2022/10/17 10:20:45;;;;;;;11.77;3.15;;;16.40;95.70;;;;;;4975732;28;20033;-96
2022/10/17 10:23:16;;;;;;;10.32;2.00;;;16.50;95.00;;;;;;4938947;29;20068;-94
2022/10/17 10:26:10;;;;;;;13.30;2.05;;;16.60;95.10;;;;;;4954180;29;20031;-94
2022/10/17 10:28:36;;;;;;;6.45;1.27;;;16.80;94.20;;;;;;4955386;29;20717;-95
2022/10/17 10:31:09;;;;;;;14.20;1.60;;;16.80;93.00;;;;;;4953649;29;20059;-94
2022/10/17 10:33:42;;;;;;;10.35;1.42;;;16.80;92.10;;;;;;4954161;29;20050;-95
2022/10/17 10:36:08;;;;;;;12.18;1.48;;;16.80;90.50;;;;;;4903637;29;20078;-94
2022/10/17 10:38:41;;;;;;;9.80;1.27;;;16.80;89.50;;;;;;4955818;29;20814;-95
2022/10/17 10:41:11;;;;;;;8.35;2.10;;;16.90;90.00;;;;;;4953820;29;20028;-95
2022/10/17 10:43:41;;;;;;;6.93;1.60;;;17.00;88.10;;;;;;4953580;29;20024;-95
2022/10/17 10:46:18;;;;;;;;;;;16.90;85.90;;;;;;4953063;29;20102;-94
2022/10/17 10:48:59;;;;;;;5.18;1.20;;;16.90;85.60;;;;;;4937349;29;19910;-95
2022/10/17 10:51:39;;;;;;;6.65;1.20;;;17.00;85.40;;;;;;4953083;29;20047;-94
2022/10/17 10:54:19;;;;;;;9.60;1.60;;;16.90;85.10;;;;;;4949674;29;20091;-94
2022/10/17 10:56:58;;;;;;;7.82;2.10;;;16.90;85.30;;;;;;4945649;28;20026;-94
2022/10/17 10:59:54;;;;;;;13.50;1.60;;;16.90;86.30;;;;;;4974659;28;20043;-94
2022/10/17 11:03:21;;;;;;;9.18;1.17;;;16.80;84.90;;;;;;4973035;28;20039;-95
2022/10/17 11:05:56;;;;;;;9.27;1.55;;;16.80;85.80;;;;;;4973360;28;20027;-96
2022/10/17 11:08:32;;;;;;;10.55;1.70;;;16.90;85.60;;;;;;4972890;28;20027;-94
2022/10/17 11:11:18;;;;;;;12.50;1.58;;;17.00;86.10;;;;;;4974590;28;20039;-94
2022/10/17 11:14:02;;;;;;;7.82;1.83;;;17.10;86.30;;;;;;4975145;28;20023;-92
2022/10/17 11:16:37;;;;;;;11.70;1.50;;;17.00;85.50;;;;;;4981200;28;20029;-93
2022/10/17 11:19:13;;;;;;;8.82;1.52;;;17.10;83.80;;;;;;4978707;28;20035;-94
2022/10/17 11:22:04;;;;;;;12.05;1.67;;;17.20;83.30;;;;;;4980256;28;20031;-95
2022/10/17 11:24:36;;;;;;;;;;;17.10;82.30;;;;;;4980063;28;20094;-92
2022/10/17 11:27:04;;;;;;;8.65;2.03;;;17.10;82.20;;;;;;4976779;28;19941;-92
2022/10/17 11:29:37;;;;;;;5.82;1.70;;;17.20;82.40;;;;;;4979366;28;20114;-92
2022/10/17 11:32:18;;;;;;;10.55;1.55;;;17.40;82.20;;;;;;4981181;28;20046;-93
2022/10/17 11:34:48;;;;;;;8.82;1.55;;;17.60;81.50;;;;;;4974954;28;20039;-92
2022/10/17 11:37:38;;;;;;;7.47;1.63;;;18.00;80.70;;;;;;4981781;28;20050;-95
2022/10/17 11:40:08;;;;;;;8.07;1.20;;;18.30;80.10;;;;;;4977337;28;20062;-94
2022/10/17 11:42:48;;;;;;;7.13;1.70;;;18.20;77.40;;;;;;4978890;28;20046;-95
2022/10/17 11:45:21;;;;;;;12.02;2.17;;;18.00;76.80;;;;;;4980477;28;20023;-95
2022/10/17 11:47:53;;;;;;;11.65;1.50;;;18.00;77.40;;;;;;4976037;28;20025;-94
2022/10/17 11:50:26;;;;;;;9.60;1.30;;;18.00;76.40;;;;;;4983996;28;20050;-94
2022/10/17 11:52:59;;;;;;;8.70;1.40;;;18.10;76.50;;;;;;4977086;28;20082;-94
2022/10/17 11:55:29;;;;;;;11.20;1.70;;;18.20;76.20;;;;;;4970446;28;20069;-96
2022/10/17 11:58:33;;;;;;;7.63;1.60;;;18.20;75.50;;;;;;4981465;28;20015;-94
2022/10/17 12:01:01;;;;;;;8.65;1.60;;;18.40;75.40;;;;;;4970867;28;20023;-95
2022/10/17 12:03:47;;;;;;;12.18;1.80;;;18.60;75.20;;;;;;4972833;28;20038;-94
2022/10/17 12:06:36;;;;;;;11.13;1.77;;;18.90;75.50;;;;;;4968218;28;20051;-95
2022/10/17 12:09:39;;;;;;;6.20;1.98;;;19.30;74.90;;;;;;4972758;28;20046;-95
2022/10/17 12:12:22;;;;;;;8.07;1.60;;;19.80;74.30;;;;;;4980463;28;20107;-93
2022/10/17 12:14:48;;;;;;;11.38;1.42;;;19.90;70.90;;;;;;4992769;28;20042;-94
2022/10/17 12:17:35;;;;;;;5.85;1.58;;;20.10;70.40;;;;;;4979038;28;20059;-95
2022/10/17 12:20:22;;;;;;;8.05;1.45;;;20.20;68.40;;;;;;4977910;28;20027;-94
2022/10/17 12:22:50;;;;;;;9.07;1.40;;;20.30;68.00;;;;;;4980951;28;20107;-93
2022/10/17 12:25:23;;;;;;;11.43;1.48;;;20.30;66.80;;;;;;4981596;28;20022;-94
2022/10/17 12:28:12;;;;;;;5.47;1.65;;;20.40;66.80;;;;;;4978306;28;20023;-96
2022/10/17 12:31:04;;;;;;;5.28;1.42;;;20.40;66.40;;;;;;4982532;28;20082;-94
2022/10/17 12:33:37;;;;;;;5.65;1.08;;;20.50;66.00;;;;;;4977781;28;20043;-94
2022/10/17 12:36:21;;;;;;;8.35;1.73;;;20.50;64.50;;;;;;4959937;28;20043;-94
2022/10/17 12:39:10;;;;;;;3.35;1.13;;;20.30;65.10;;;;;;4959810;28;20390;-93
2022/10/17 12:41:39;;;;;;;12.63;1.63;;;20.20;64.50;;;;;;4936339;28;20080;-92
2022/10/17 12:44:14;;;;;;;5.85;1.08;;;20.00;64.20;;;;;;4960522;28;20024;-94
2022/10/17 12:47:04;;;;;;;7.35;1.80;;;20.00;63.70;;;;;;4951757;28;20078;-93
2022/10/17 12:49:46;;;;;;;8.02;1.80;;;20.20;64.70;;;;;;4959196;28;20039;-95
2022/10/17 12:52:19;;;;;;;9.32;1.90;;;20.40;65.00;;;;;;4959068;29;20035;-93
2022/10/17 12:55:01;;;;;;;5.75;1.48;;;20.40;63.70;;;;;;4960050;29;20031;-94
2022/10/17 12:57:46;;;;;;;9.95;1.40;;;20.40;64.00;;;;;;4961094;28;20481;-96
2022/10/17 13:00:18;;;;;;;8.52;1.63;;;20.70;64.00;;;;;;4960880;28;20027;-95
2022/10/17 13:02:48;;;;;;;7.43;1.38;;;20.80;63.10;;;;;;4964432;28;20029;-93
2022/10/17 13:05:28;;;;;;;7.50;1.65;;;20.90;63.50;;;;;;4962210;28;20034;-94
2022/10/17 13:07:55;;;;;;;9.43;1.57;;;21.00;63.00;;;;;;4960424;28;20046;-94